Time;durP1;ratioP1;P1;durP2;ratioP2;P2;SDS_P1;SDS_P2;PMS_P1;PMS_P2;Temp;Humidity;BMP_temperature;BMP_pressure;BME280_temperature;BME280_humidity;BME280_pressure;Samples;Min_cycle;Max_cycle;Signal;HPM_P1;HPM_P2
2021/05/21 00:00:19;;;;;;;2.83;1.07;;;;;;;;;;4419452;32;20272;-56
2021/05/21 00:02:45;;;;;;;2.90;1.30;;;;;;;;;;4419068;32;20237;-55
2021/05/21 00:05:10;;;;;;;2.25;1.10;;;;;;;;;;4418690;32;20293;-56
2021/05/21 00:07:36;;;;;;;1.27;0.80;;;;;;;;;;4419131;32;20296;-55
2021/05/21 00:10:03;;;;;;;0.70;0.70;;;;;;;;;;4419043;32;20280;-56
2021/05/21 00:12:28;;;;;;;1.00;0.70;;;;;;;;;;4419155;32;20217;-55
2021/05/21 00:14:54;;;;;;;0.60;0.60;;;;;;;;;;4418519;32;20276;-55
2021/05/21 00:17:19;;;;;;;0.80;0.70;;;;;;;;;;4419023;32;20237;-55
2021/05/21 00:19:44;;;;;;;0.60;0.60;;;;;;;;;;4418840;32;20600;-55
2021/05/21 00:22:10;;;;;;;0.70;0.70;;;;;;;;;;4418897;32;20292;-55
2021/05/21 00:24:35;;;;;;;3.10;0.50;;;;;;;;;;4418603;32;20283;-55
2021/05/21 00:27:01;;;;;;;2.00;0.77;;;;;;;;;;4418604;32;20629;-55
2021/05/21 00:29:26;;;;;;;0.87;0.67;;;;;;;;;;4418690;32;20210;-55
2021/05/21 00:31:52;;;;;;;1.10;0.60;;;;;;;;;;4408186;32;20222;-55
2021/05/21 00:34:17;;;;;;;3.50;0.70;;;;;;;;;;4404637;32;20328;-55
2021/05/21 00:36:42;;;;;;;0.73;0.60;;;;;;;;;;4418112;32;20252;-55
2021/05/21 00:39:08;;;;;;;0.70;0.60;;;;;;;;;;4418447;32;20228;-55
2021/05/21 00:41:34;;;;;;;0.63;0.60;;;;;;;;;;4418383;32;20527;-55
2021/05/21 00:43:59;;;;;;;2.00;1.00;;;;;;;;;;4418461;32;20812;-55
2021/05/21 00:46:25;;;;;;;1.57;0.80;;;;;;;;;;4418202;32;20514;-55
2021/05/21 00:48:50;;;;;;;1.83;1.00;;;;;;;;;;4418104;32;20232;-55
2021/05/21 00:51:16;;;;;;;0.70;0.70;;;;;;;;;;4418190;32;20660;-55
2021/05/21 00:53:42;;;;;;;7.33;1.03;;;;;;;;;;4418337;32;20659;-55
2021/05/21 00:56:08;;;;;;;2.00;1.03;;;;;;;;;;4404097;32;20828;-56
2021/05/21 00:58:35;;;;;;;1.80;1.12;;;;;;;;;;4418108;32;20511;-55
2021/05/21 01:01:01;;;;;;;1.53;0.90;;;;;;;;;;4418015;32;20224;-55
2021/05/21 01:03:26;;;;;;;2.30;0.93;;;;;;;;;;4416967;32;20831;-55
2021/05/21 01:05:52;;;;;;;1.00;0.83;;;;;;;;;;4417695;32;20296;-55
2021/05/21 01:08:18;;;;;;;0.60;0.60;;;;;;;;;;4418063;32;20271;-55
2021/05/21 01:10:45;;;;;;;1.60;0.93;;;;;;;;;;4417877;32;20233;-54
2021/05/21 01:13:10;;;;;;;2.90;0.90;;;;;;;;;;4418177;32;20529;-55
2021/05/21 01:15:38;;;;;;;0.80;0.80;;;;;;;;;;4417599;32;20293;-57
2021/05/21 01:18:05;;;;;;;0.73;0.65;;;;;;;;;;4417943;32;20596;-54
2021/05/21 01:20:32;;;;;;;1.33;0.80;;;;;;;;;;4417984;32;20488;-56
2021/05/21 01:22:57;;;;;;;0.50;0.50;;;;;;;;;;4417671;32;20266;-55
2021/05/21 01:25:23;;;;;;;3.07;1.30;;;;;;;;;;4417723;32;20700;-57
2021/05/21 01:27:50;;;;;;;1.87;0.93;;;;;;;;;;4417951;32;20251;-55
2021/05/21 01:30:17;;;;;;;5.07;1.70;;;;;;;;;;4404101;32;20380;-55
2021/05/21 01:32:47;;;;;;;2.90;1.20;;;;;;;;;;4418148;32;20277;-56
2021/05/21 01:35:17;;;;;;;2.30;1.47;;;;;;;;;;4417881;32;20621;-56
2021/05/21 01:37:44;;;;;;;1.83;1.10;;;;;;;;;;4417842;32;20233;-56
2021/05/21 01:40:11;;;;;;;0.63;0.60;;;;;;;;;;4417643;32;20653;-56
2021/05/21 01:42:37;;;;;;;0.50;0.50;;;;;;;;;;4417767;32;20216;-56
2021/05/21 01:45:04;;;;;;;0.70;0.70;;;;;;;;;;4417381;32;20287;-57
2021/05/21 01:47:29;;;;;;;0.63;0.60;;;;;;;;;;4404007;32;20286;-56
2021/05/21 01:49:56;;;;;;;3.60;0.73;;;;;;;;;;4417363;32;20636;-58
2021/05/21 01:52:22;;;;;;;1.53;0.67;;;;;;;;;;4403470;32;20228;-56
2021/05/21 01:54:47;;;;;;;1.63;0.77;;;;;;;;;;4417096;32;20244;-56
2021/05/21 01:57:13;;;;;;;1.23;0.70;;;;;;;;;;4403727;32;20380;-56
2021/05/21 01:59:38;;;;;;;7.12;0.70;;;;;;;;;;4417292;32;20217;-56
2021/05/21 02:02:06;;;;;;;1.10;0.70;;;;;;;;;;4417576;32;20240;-56
2021/05/21 02:04:35;;;;;;;0.67;0.67;;;;;;;;;;4416982;32;20241;-56
2021/05/21 02:07:01;;;;;;;0.83;0.80;;;;;;;;;;4417323;32;20217;-56
2021/05/21 02:09:27;;;;;;;1.20;1.10;;;;;;;;;;4417412;32;20269;-56
2021/05/21 02:11:54;;;;;;;1.47;1.10;;;;;;;;;;4417302;32;20686;-56
2021/05/21 02:14:20;;;;;;;7.83;2.00;;;;;;;;;;4417138;32;20251;-56
2021/05/21 02:16:45;;;;;;;1.77;1.00;;;;;;;;;;4417459;32;20237;-56
2021/05/21 02:19:11;;;;;;;5.23;1.57;;;;;;;;;;4417102;32;20241;-56
2021/05/21 02:21:39;;;;;;;3.87;1.40;;;;;;;;;;4417350;32;20241;-56
2021/05/21 02:24:05;;;;;;;2.13;1.20;;;;;;;;;;4416878;32;20217;-56
2021/05/21 02:26:32;;;;;;;1.50;0.90;;;;;;;;;;4416656;32;20672;-55
2021/05/21 02:28:58;;;;;;;3.03;1.10;;;;;;;;;;4390745;32;20255;-54
2021/05/21 02:31:24;;;;;;;3.53;1.87;;;;;;;;;;4417001;32;20613;-55
2021/05/21 02:33:49;;;;;;;2.60;1.60;;;;;;;;;;4417049;32;20286;-55
2021/05/21 02:36:15;;;;;;;2.83;1.50;;;;;;;;;;4416572;32;20225;-55
2021/05/21 02:38:40;;;;;;;2.83;1.77;;;;;;;;;;4416912;32;20559;-55
2021/05/21 02:41:06;;;;;;;3.07;1.27;;;;;;;;;;4416967;32;21239;-55
2021/05/21 02:43:31;;;;;;;5.87;0.90;;;;;;;;;;4416856;32;20296;-55
2021/05/21 02:45:57;;;;;;;4.33;0.93;;;;;;;;;;4416813;32;20792;-54
2021/05/21 02:48:22;;;;;;;0.60;0.60;;;;;;;;;;4417296;32;20253;-54
2021/05/21 02:50:48;;;;;;;1.87;0.90;;;;;;;;;;4417107;32;20335;-55
2021/05/21 02:53:13;;;;;;;0.70;0.70;;;;;;;;;;4416783;32;20249;-55
2021/05/21 02:55:39;;;;;;;2.50;0.80;;;;;;;;;;4416908;32;20276;-54
2021/05/21 02:58:04;;;;;;;1.60;0.87;;;;;;;;;;4417004;32;20267;-55
2021/05/21 03:00:30;;;;;;;3.67;1.00;;;;;;;;;;4416726;32;20264;-55
2021/05/21 03:02:56;;;;;;;5.13;0.80;;;;;;;;;;4403080;32;20249;-55
2021/05/21 03:05:24;;;;;;;0.70;0.70;;;;;;;;;;4416498;32;20786;-55
2021/05/21 03:07:54;;;;;;;0.60;0.60;;;;;;;;;;4416735;32;20311;-55
2021/05/21 03:10:21;;;;;;;6.87;1.00;;;;;;;;;;4416879;32;20367;-55
2021/05/21 03:12:47;;;;;;;3.43;1.47;;;;;;;;;;4417090;32;20213;-55
2021/05/21 03:15:13;;;;;;;1.97;1.00;;;;;;;;;;4416808;32;20397;-55
2021/05/21 03:17:38;;;;;;;3.07;1.07;;;;;;;;;;4417113;32;20255;-55
2021/05/21 03:20:04;;;;;;;4.10;1.53;;;;;;;;;;4416933;32;20325;-55
2021/05/21 03:22:29;;;;;;;2.43;1.53;;;;;;;;;;4417279;32;20225;-55
2021/05/21 03:24:56;;;;;;;3.40;1.90;;;;;;;;;;4416354;32;20395;-55
2021/05/21 03:27:22;;;;;;;3.27;1.57;;;;;;;;;;4418847;32;20240;-55
2021/05/21 03:29:47;;;;;;;1.77;1.40;;;;;;;;;;4419444;32;20255;-55
2021/05/21 03:32:13;;;;;;;1.60;1.00;;;;;;;;;;4419530;32;20249;-55
2021/05/21 03:34:39;;;;;;;1.00;0.90;;;;;;;;;;4419096;32;20261;-55
2021/05/21 03:37:04;;;;;;;1.27;1.00;;;;;;;;;;4419193;32;20281;-55
2021/05/21 03:39:30;;;;;;;1.77;1.20;;;;;;;;;;4419590;32;20209;-55
2021/05/21 03:41:55;;;;;;;1.58;0.98;;;;;;;;;;4419729;32;20365;-55
2021/05/21 03:44:21;;;;;;;4.00;1.00;;;;;;;;;;4419279;32;20249;-55
2021/05/21 03:46:46;;;;;;;1.70;0.80;;;;;;;;;;4419030;32;20300;-56
2021/05/21 03:49:13;;;;;;;3.17;1.40;;;;;;;;;;4419093;32;20280;-55
2021/05/21 03:51:38;;;;;;;2.30;1.50;;;;;;;;;;4419295;32;20226;-55
2021/05/21 03:54:04;;;;;;;1.67;1.10;;;;;;;;;;4419197;32;20285;-55
2021/05/21 03:56:30;;;;;;;2.30;1.30;;;;;;;;;;4418879;32;20284;-55
2021/05/21 03:58:57;;;;;;;5.22;1.10;;;;;;;;;;4418842;32;20663;-55
2021/05/21 04:01:24;;;;;;;7.30;1.43;;;;;;;;;;4418891;32;20673;-55
2021/05/21 04:03:50;;;;;;;3.63;1.33;;;;;;;;;;4418788;32;20257;-55
2021/05/21 04:06:15;;;;;;;7.37;1.30;;;;;;;;;;4418844;32;20221;-55
2021/05/21 04:08:41;;;;;;;1.60;1.40;;;;;;;;;;4418672;32;20213;-55
2021/05/21 04:11:07;;;;;;;8.15;4.07;;;;;;;;;;4419043;32;20662;-55
2021/05/21 04:13:33;;;;;;;8.27;5.10;;;;;;;;;;4418972;32;20235;-55
2021/05/21 04:15:58;;;;;;;11.73;3.20;;;;;;;;;;4419151;32;20374;-55
2021/05/21 04:18:23;;;;;;;10.38;1.62;;;;;;;;;;4419484;32;20633;-55
2021/05/21 04:20:49;;;;;;;1.90;1.30;;;;;;;;;;4419087;32;20413;-54
2021/05/21 04:23:15;;;;;;;2.43;1.30;;;;;;;;;;4418863;32;20561;-55
2021/05/21 04:25:40;;;;;;;2.05;0.88;;;;;;;;;;4418736;32;20363;-55
2021/05/21 04:28:05;;;;;;;2.50;1.00;;;;;;;;;;4419117;32;20390;-55
2021/05/21 04:30:31;;;;;;;3.37;1.30;;;;;;;;;;4418930;32;20265;-55
2021/05/21 04:32:56;;;;;;;4.90;2.07;;;;;;;;;;4419068;32;20714;-55
2021/05/21 04:35:22;;;;;;;4.72;1.60;;;;;;;;;;4418460;32;20380;-55
2021/05/21 04:37:47;;;;;;;3.43;2.30;;;;;;;;;;4417927;32;20625;-55
2021/05/21 04:40:14;;;;;;;2.20;1.67;;;;;;;;;;4404506;32;20388;-56
2021/05/21 04:42:40;;;;;;;1.42;0.85;;;;;;;;;;4418861;32;20635;-55
2021/05/21 04:45:07;;;;;;;4.00;1.17;;;;;;;;;;4418795;32;20316;-55
2021/05/21 04:47:33;;;;;;;1.40;1.20;;;;;;;;;;4419225;32;20360;-54
2021/05/21 04:49:59;;;;;;;1.67;0.90;;;;;;;;;;4418537;32;20292;-54
2021/05/21 04:52:24;;;;;;;1.67;1.03;;;;;;;;;;4418874;32;20264;-54
2021/05/21 04:54:50;;;;;;;1.47;1.20;;;;;;;;;;4418485;32;20233;-55
2021/05/21 04:57:15;;;;;;;1.47;1.10;;;;;;;;;;4419111;32;20773;-54
2021/05/21 04:59:40;;;;;;;1.40;1.00;;;;;;;;;;4418537;32;20213;-55
2021/05/21 05:02:06;;;;;;;1.00;0.90;;;;;;;;;;4404721;32;20332;-54
2021/05/21 05:04:32;;;;;;;1.02;0.77;;;;;;;;;;4418514;32;20221;-54
2021/05/21 05:06:57;;;;;;;2.67;0.97;;;;;;;;;;4404365;32;20232;-56
2021/05/21 05:09:23;;;;;;;1.00;0.90;;;;;;;;;;4418252;32;20232;-54
2021/05/21 05:11:49;;;;;;;1.00;0.80;;;;;;;;;;4404463;32;20677;-54
2021/05/21 05:14:14;;;;;;;3.27;0.90;;;;;;;;;;4418371;32;20270;-54
2021/05/21 05:16:40;;;;;;;1.12;0.90;;;;;;;;;;4404450;32;20309;-55
2021/05/21 05:19:06;;;;;;;0.75;0.75;;;;;;;;;;4418253;32;20311;-54
2021/05/21 05:21:37;;;;;;;2.30;1.33;;;;;;;;;;4418531;32;20333;-55
2021/05/21 05:24:03;;;;;;;1.80;0.77;;;;;;;;;;4418441;32;20209;-56
2021/05/21 05:26:29;;;;;;;2.42;0.73;;;;;;;;;;4418229;32;20289;-55
2021/05/21 05:28:55;;;;;;;1.25;0.82;;;;;;;;;;4418174;32;20282;-56
2021/05/21 05:31:21;;;;;;;0.98;0.88;;;;;;;;;;4412316;32;20272;-55
2021/05/21 05:33:47;;;;;;;4.85;0.85;;;;;;;;;;4418536;32;20624;-54
2021/05/21 05:36:13;;;;;;;0.77;0.77;;;;;;;;;;4404333;32;20251;-55
2021/05/21 05:38:38;;;;;;;1.47;0.73;;;;;;;;;;4402655;32;20581;-54
2021/05/21 05:41:04;;;;;;;1.07;0.97;;;;;;;;;;4404271;32;20284;-54
2021/05/21 05:43:29;;;;;;;3.80;1.35;;;;;;;;;;4417854;32;20578;-55
2021/05/21 05:45:55;;;;;;;2.47;1.20;;;;;;;;;;4417415;32;20606;-54
2021/05/21 05:48:20;;;;;;;1.35;0.90;;;;;;;;;;4417703;32;20278;-54
2021/05/21 05:50:48;;;;;;;0.93;0.85;;;;;;;;;;4417628;32;20309;-56
2021/05/21 05:53:13;;;;;;;1.12;0.90;;;;;;;;;;4417589;32;20263;-56
2021/05/21 05:55:41;;;;;;;5.80;1.67;;;;;;;;;;4417839;32;20682;-55
2021/05/21 05:58:10;;;;;;;6.03;1.35;;;;;;;;;;4417578;32;20244;-55
2021/05/21 06:00:36;;;;;;;1.63;1.00;;;;;;;;;;4417550;32;20312;-55
2021/05/21 06:03:10;;;;;;;1.53;1.00;;;;;;;;;;4402235;32;20309;-55
2021/05/21 06:05:37;;;;;;;0.98;0.85;;;;;;;;;;4415890;32;20312;-55
2021/05/21 06:08:05;;;;;;;11.03;2.13;;;;;;;;;;4416347;32;20279;-55
2021/05/21 06:10:31;;;;;;;6.62;4.68;;;;;;;;;;4416172;32;20235;-56
2021/05/21 06:13:07;;;;;;;18.55;3.00;;;;;;;;;;4416064;32;20243;-56
2021/05/21 06:15:34;;;;;;;7.93;2.55;;;;;;;;;;4416313;32;20212;-56
2021/05/21 06:18:00;;;;;;;1.73;1.10;;;;;;;;;;4417589;32;20217;-55
2021/05/21 06:20:28;;;;;;;4.37;3.05;;;;;;;;;;4408517;32;20374;-56
2021/05/21 06:22:54;;;;;;;6.57;3.05;;;;;;;;;;4412774;32;20352;-56
2021/05/21 06:28:10;;;;;;;8.70;4.80;;;;;;;;;;4388473;32;20591;-55
2021/05/21 06:30:36;;;;;;;7.50;3.90;;;;;;;;;;4415108;32;20357;-56
2021/05/21 06:33:02;;;;;;;14.27;2.95;;;;;;;;;;4402585;32;20225;-55
2021/05/21 06:35:27;;;;;;;15.73;2.55;;;;;;;;;;4402499;32;20360;-56
2021/05/21 06:37:53;;;;;;;11.12;3.42;;;;;;;;;;4402719;32;20260;-55
2021/05/21 06:40:19;;;;;;;8.88;3.12;;;;;;;;;;4402428;32;20291;-56
2021/05/21 06:42:45;;;;;;;6.05;1.67;;;;;;;;;;4414825;32;20224;-55
2021/05/21 06:45:11;;;;;;;3.80;2.05;;;;;;;;;;4417498;32;20323;-55
2021/05/21 06:47:37;;;;;;;14.68;3.75;;;;;;;;;;4417769;32;20233;-55
2021/05/21 06:50:03;;;;;;;14.45;3.67;;;;;;;;;;4417740;32;20425;-56
2021/05/21 06:52:29;;;;;;;5.65;3.40;;;;;;;;;;4417516;32;20225;-55
2021/05/21 06:54:54;;;;;;;4.85;1.92;;;;;;;;;;4403736;32;20367;-54
2021/05/21 06:57:20;;;;;;;5.00;2.83;;;;;;;;;;4417553;32;20259;-54
2021/05/21 06:59:45;;;;;;;7.18;2.90;;;;;;;;;;4417619;32;20750;-55
2021/05/21 07:02:11;;;;;;;3.20;1.52;;;;;;;;;;4415290;32;20252;-56
2021/05/21 07:04:37;;;;;;;9.32;2.83;;;;;;;;;;4420181;32;20321;-55
2021/05/21 07:07:02;;;;;;;7.00;4.78;;;;;;;;;;4420098;32;20243;-55
2021/05/21 07:09:28;;;;;;;8.43;3.55;;;;;;;;;;4419729;32;20213;-55
2021/05/21 07:11:53;;;;;;;6.75;3.35;;;;;;;;;;4420178;32;20250;-55
2021/05/21 07:14:19;;;;;;;3.47;2.70;;;;;;;;;;4420023;32;20323;-55
2021/05/21 07:16:44;;;;;;;2.78;1.90;;;;;;;;;;4418256;32;20287;-55
2021/05/21 07:19:14;;;;;;;6.68;3.10;;;;;;;;;;4419981;32;20271;-56
2021/05/21 07:21:39;;;;;;;7.28;2.15;;;;;;;;;;4420088;32;20302;-55
2021/05/21 07:24:05;;;;;;;3.95;2.30;;;;;;;;;;4419521;32;20267;-55
2021/05/21 07:26:31;;;;;;;4.55;2.30;;;;;;;;;;4420161;32;20691;-56
2021/05/21 07:28:57;;;;;;;8.75;3.30;;;;;;;;;;4419781;32;20549;-55
2021/05/21 07:31:26;;;;;;;7.00;3.30;;;;;;;;;;4419506;32;20294;-56
2021/05/21 07:33:53;;;;;;;8.88;5.18;;;;;;;;;;4405507;32;20418;-56
2021/05/21 07:36:19;;;;;;;11.00;6.10;;;;;;;;;;4419715;32;20225;-55
2021/05/21 07:38:45;;;;;;;12.20;5.97;;;;;;;;;;4420063;32;20464;-55
2021/05/21 07:41:10;;;;;;;5.43;3.55;;;;;;;;;;4420139;32;20221;-56
2021/05/21 07:43:36;;;;;;;5.70;3.70;;;;;;;;;;4419629;32;20358;-55
2021/05/21 07:46:01;;;;;;;7.68;3.55;;;;;;;;;;4419667;32;20268;-55
2021/05/21 07:48:27;;;;;;;11.80;2.63;;;;;;;;;;4419757;32;20581;-55
2021/05/21 07:50:53;;;;;;;3.60;2.73;;;;;;;;;;4419215;32;20296;-56
2021/05/21 07:53:18;;;;;;;6.63;2.50;;;;;;;;;;4416188;32;20907;-55
2021/05/21 07:55:44;;;;;;;3.47;2.07;;;;;;;;;;4417278;32;20296;-55
2021/05/21 07:58:12;;;;;;;3.20;2.43;;;;;;;;;;4416973;32;20224;-55
2021/05/21 08:00:38;;;;;;;6.43;2.73;;;;;;;;;;4417611;32;20297;-55
2021/05/21 08:03:03;;;;;;;5.33;3.10;;;;;;;;;;4416745;32;20736;-55
2021/05/21 08:05:29;;;;;;;5.63;3.40;;;;;;;;;;4417627;32;20289;-55
2021/05/21 08:07:55;;;;;;;7.00;2.90;;;;;;;;;;4403340;32;20398;-55
2021/05/21 08:10:20;;;;;;;4.93;3.25;;;;;;;;;;4403388;32;20301;-57
2021/05/21 08:12:46;;;;;;;5.97;3.83;;;;;;;;;;4416961;32;20435;-55
2021/05/21 08:15:12;;;;;;;12.00;5.60;;;;;;;;;;4418880;32;20443;-56
2021/05/21 08:17:37;;;;;;;7.33;4.97;;;;;;;;;;4418984;32;20250;-55
2021/05/21 08:20:04;;;;;;;6.93;4.47;;;;;;;;;;4418204;32;20304;-55
2021/05/21 08:22:30;;;;;;;10.10;4.87;;;;;;;;;;4403854;32;20224;-55
2021/05/21 08:24:56;;;;;;;7.43;3.58;;;;;;;;;;4418922;32;20315;-56
2021/05/21 08:27:21;;;;;;;10.68;5.50;;;;;;;;;;4405440;32;20334;-55
2021/05/21 08:29:47;;;;;;;10.93;6.53;;;;;;;;;;4418773;32;20288;-55
2021/05/21 08:32:12;;;;;;;3.50;3.20;;;;;;;;;;4418980;32;20328;-55
2021/05/21 08:34:38;;;;;;;4.20;3.83;;;;;;;;;;4418914;32;20228;-55
2021/05/21 08:37:03;;;;;;;4.00;3.70;;;;;;;;;;4419163;32;20221;-55
2021/05/21 08:39:29;;;;;;;4.37;3.75;;;;;;;;;;4418877;32;20359;-55
2021/05/21 08:41:57;;;;;;;6.57;3.80;;;;;;;;;;4418868;32;20237;-55
2021/05/21 08:44:24;;;;;;;5.35;4.22;;;;;;;;;;4418705;32;20205;-55
2021/05/21 08:46:51;;;;;;;4.43;4.00;;;;;;;;;;4419158;32;20778;-55
2021/05/21 08:49:19;;;;;;;4.78;4.37;;;;;;;;;;4418874;32;20320;-54
2021/05/21 08:51:45;;;;;;;5.30;4.80;;;;;;;;;;4418491;32;20229;-55
2021/05/21 08:54:11;;;;;;;7.15;5.90;;;;;;;;;;4418176;32;20243;-55
2021/05/21 08:56:37;;;;;;;7.40;5.90;;;;;;;;;;4417984;32;20522;-55
2021/05/21 08:59:03;;;;;;;6.37;5.78;;;;;;;;;;4418034;32;20306;-55
2021/05/21 09:01:28;;;;;;;6.12;5.03;;;;;;;;;;4418152;32;20726;-55
2021/05/21 09:04:01;;;;;;;6.22;5.65;;;;;;;;;;4418023;32;20244;-55
2021/05/21 09:06:28;;;;;;;6.33;5.33;;;;;;;;;;4418205;32;20714;-55
2021/05/21 09:08:58;;;;;;;6.03;5.43;;;;;;;;;;4417946;32;20196;-56
2021/05/21 09:11:24;;;;;;;8.63;5.65;;;;;;;;;;4418035;32;20251;-55
2021/05/21 09:13:51;;;;;;;6.15;5.53;;;;;;;;;;4417534;32;20213;-55
2021/05/21 09:16:25;;;;;;;8.00;5.70;;;;;;;;;;4412489;32;20662;-55
2021/05/21 09:18:57;;;;;;;15.98;5.87;;;;;;;;;;4406979;32;20286;-55
2021/05/21 09:21:23;;;;;;;5.62;5.05;;;;;;;;;;4391677;32;20260;-55
2021/05/21 09:24:07;;;;;;;8.27;4.72;;;;;;;;;;4415807;32;20344;-56
2021/05/21 09:26:46;;;;;;;7.43;5.57;;;;;;;;;;4415839;32;20740;-56
2021/05/21 09:29:15;;;;;;;5.90;5.37;;;;;;;;;;4417220;32;20223;-55
2021/05/21 09:31:48;;;;;;;13.77;6.45;;;;;;;;;;4408541;32;20339;-56
2021/05/21 09:34:30;;;;;;;9.52;5.30;;;;;;;;;;4402491;32;20538;-56
2021/05/21 09:36:56;;;;;;;5.53;4.95;;;;;;;;;;4402698;32;20455;-57
2021/05/21 09:39:21;;;;;;;8.85;5.32;;;;;;;;;;4402251;32;20340;-56
2021/05/21 09:41:49;;;;;;;6.43;5.37;;;;;;;;;;4388569;32;20245;-55
2021/05/21 09:44:15;;;;;;;7.03;4.65;;;;;;;;;;4402682;32;20265;-55
2021/05/21 09:46:48;;;;;;;9.18;5.37;;;;;;;;;;4403052;32;20597;-55
2021/05/21 09:49:33;;;;;;;10.15;5.28;;;;;;;;;;4402416;32;20213;-56
2021/05/21 09:52:01;;;;;;;8.13;5.12;;;;;;;;;;4402568;32;20304;-56
2021/05/21 09:54:46;;;;;;;6.30;4.72;;;;;;;;;;4402412;32;20334;-56
2021/05/21 09:57:12;;;;;;;6.30;5.65;;;;;;;;;;4402769;32;20232;-56
2021/05/21 09:59:38;;;;;;;5.12;4.30;;;;;;;;;;4402422;32;20206;-56
2021/05/21 10:02:24;;;;;;;4.47;4.07;;;;;;;;;;4415889;32;20212;-55
2021/05/21 10:04:51;;;;;;;5.30;4.80;;;;;;;;;;4417267;32;20233;-55
2021/05/21 10:07:17;;;;;;;5.35;4.43;;;;;;;;;;4417375;32;20394;-55
2021/05/21 10:09:43;;;;;;;4.93;4.53;;;;;;;;;;4417364;32;20197;-56
2021/05/21 10:12:09;;;;;;;5.03;4.37;;;;;;;;;;4417443;32;20626;-55
2021/05/21 10:14:35;;;;;;;4.53;4.05;;;;;;;;;;4403424;32;20233;-55
2021/05/21 10:17:02;;;;;;;5.05;4.60;;;;;;;;;;4417252;32;20439;-56
2021/05/21 10:19:28;;;;;;;5.78;5.18;;;;;;;;;;4417250;32;20637;-56
2021/05/21 10:21:55;;;;;;;5.40;4.90;;;;;;;;;;4417595;32;20559;-55
2021/05/21 10:24:22;;;;;;;6.95;5.70;;;;;;;;;;4417065;32;20189;-55
2021/05/21 10:26:53;;;;;;;7.32;5.15;;;;;;;;;;4417865;32;20225;-55
2021/05/21 10:29:24;;;;;;;6.32;5.70;;;;;;;;;;4417318;32;20217;-55
2021/05/21 10:31:51;;;;;;;7.93;5.22;;;;;;;;;;4407045;32;20292;-55
2021/05/21 10:34:22;;;;;;;5.45;4.95;;;;;;;;;;4402030;32;20669;-55
2021/05/21 10:36:49;;;;;;;5.05;4.53;;;;;;;;;;4404681;32;20218;-55
2021/05/21 10:39:22;;;;;;;4.60;4.20;;;;;;;;;;4391542;32;20241;-55
2021/05/21 10:41:51;;;;;;;6.78;4.62;;;;;;;;;;4405045;32;20391;-55
2021/05/21 10:44:22;;;;;;;5.53;3.78;;;;;;;;;;4390969;32;20232;-59
2021/05/21 10:46:50;;;;;;;6.78;4.45;;;;;;;;;;4405032;32;20233;-55
2021/05/21 10:49:22;;;;;;;4.45;4.05;;;;;;;;;;4391197;32;20302;-56
2021/05/21 10:51:56;;;;;;;6.35;5.30;;;;;;;;;;4405076;32;20285;-56
2021/05/21 10:54:28;;;;;;;5.72;5.12;;;;;;;;;;4417291;32;20243;-56
2021/05/21 10:56:58;;;;;;;8.23;5.03;;;;;;;;;;4406000;32;20233;-56
2021/05/21 11:00:02;;;;;;;5.82;5.20;;;;;;;;;;4405980;32;20272;-56
2021/05/21 11:02:43;;;;;;;9.05;5.53;;;;;;;;;;4328191;33;20230;-56
2021/05/21 11:05:31;;;;;;;6.53;5.37;;;;;;;;;;4327640;33;20223;-56
2021/05/21 11:07:58;;;;;;;10.45;5.87;;;;;;;;;;4382341;32;20683;-56
2021/05/21 11:10:32;;;;;;;5.32;4.35;;;;;;;;;;4404733;32;20778;-56
2021/05/21 11:13:12;;;;;;;4.75;4.25;;;;;;;;;;4405097;32;20713;-56
2021/05/21 11:15:55;;;;;;;7.55;5.15;;;;;;;;;;4404974;32;20309;-56
2021/05/21 11:18:21;;;;;;;5.30;4.68;;;;;;;;;;4407894;32;20209;-56
2021/05/21 11:21:01;;;;;;;4.75;4.32;;;;;;;;;;4419930;32;20272;-57
2021/05/21 11:23:41;;;;;;;4.82;4.43;;;;;;;;;;4419171;32;20342;-56
2021/05/21 11:26:13;;;;;;;9.40;6.28;;;;;;;;;;4419447;32;20331;-56
2021/05/21 11:28:49;;;;;;;5.35;4.62;;;;;;;;;;4419600;32;20276;-56
2021/05/21 11:31:17;;;;;;;10.40;6.95;;;;;;;;;;4419743;32;20579;-56
2021/05/21 11:33:45;;;;;;;11.12;6.87;;;;;;;;;;4419669;32;20244;-56
2021/05/21 11:36:11;;;;;;;8.07;5.78;;;;;;;;;;4418895;32;20653;-57
2021/05/21 11:38:37;;;;;;;8.45;5.70;;;;;;;;;;4419508;32;20352;-56
2021/05/21 11:41:04;;;;;;;13.93;4.97;;;;;;;;;;4419348;32;20319;-55
2021/05/21 11:43:29;;;;;;;6.65;5.32;;;;;;;;;;4419098;32;20231;-55
2021/05/21 11:45:56;;;;;;;6.03;3.85;;;;;;;;;;4419470;32;20722;-56
2021/05/21 11:48:36;;;;;;;4.87;3.95;;;;;;;;;;4418942;32;20263;-56
2021/05/21 11:51:08;;;;;;;5.82;4.82;;;;;;;;;;4419661;32;20250;-56
2021/05/21 11:53:54;;;;;;;5.57;3.70;;;;;;;;;;4419419;32;20569;-56
2021/05/21 11:56:40;;;;;;;5.80;4.20;;;;;;;;;;4405321;32;20303;-56
2021/05/21 11:59:14;;;;;;;5.12;4.20;;;;;;;;;;4419406;32;20202;-56
2021/05/21 12:01:48;;;;;;;5.57;4.87;;;;;;;;;;4405354;32;20402;-55
2021/05/21 12:04:15;;;;;;;5.70;3.45;;;;;;;;;;4405290;32;20347;-55
2021/05/21 12:06:52;;;;;;;4.95;3.33;;;;;;;;;;4418842;32;20224;-56
2021/05/21 12:09:20;;;;;;;5.65;3.50;;;;;;;;;;4418991;32;20460;-55
2021/05/21 12:11:48;;;;;;;3.42;3.12;;;;;;;;;;4419346;32;20697;-55
2021/05/21 12:14:16;;;;;;;5.55;4.15;;;;;;;;;;4418730;32;20223;-56
2021/05/21 12:16:43;;;;;;;3.87;3.20;;;;;;;;;;4417780;32;20542;-55
2021/05/21 12:19:10;;;;;;;7.68;4.20;;;;;;;;;;4404401;32;20248;-60
2021/05/21 12:21:39;;;;;;;3.35;2.90;;;;;;;;;;4419269;32;20217;-56
2021/05/21 12:24:05;;;;;;;6.87;5.43;;;;;;;;;;4418843;32;20196;-56
2021/05/21 12:26:33;;;;;;;3.70;2.80;;;;;;;;;;4418884;32;20217;-56
2021/05/21 12:29:00;;;;;;;6.12;5.30;;;;;;;;;;4418806;32;20214;-55
2021/05/21 12:31:31;;;;;;;3.50;3.20;;;;;;;;;;4418766;32;20281;-56
2021/05/21 12:33:58;;;;;;;3.20;2.42;;;;;;;;;;4418860;32;20378;-55
2021/05/21 12:36:28;;;;;;;3.50;3.17;;;;;;;;;;4418874;32;20302;-56
2021/05/21 12:38:57;;;;;;;3.87;3.10;;;;;;;;;;4418754;32;20244;-56
2021/05/21 12:41:31;;;;;;;3.70;2.95;;;;;;;;;;4405137;32;20217;-56
2021/05/21 12:44:13;;;;;;;4.15;3.40;;;;;;;;;;4418766;32;20684;-57
2021/05/21 12:46:40;;;;;;;5.65;3.35;;;;;;;;;;4418762;32;20612;-57
2021/05/21 12:49:07;;;;;;;3.90;3.30;;;;;;;;;;4403992;32;20622;-57
2021/05/21 12:51:33;;;;;;;4.03;3.22;;;;;;;;;;4403324;32;20225;-55
2021/05/21 12:54:31;;;;;;;4.53;2.85;;;;;;;;;;4389494;32;20558;-56
2021/05/21 12:57:19;;;;;;;4.22;3.60;;;;;;;;;;4403508;32;20319;-56
2021/05/21 12:59:52;;;;;;;4.70;4.05;;;;;;;;;;4403457;32;20320;-56
2021/05/21 13:02:18;;;;;;;5.57;3.78;;;;;;;;;;4418356;32;20597;-55
2021/05/21 13:04:56;;;;;;;3.25;2.80;;;;;;;;;;4418121;32;20280;-57
2021/05/21 13:07:22;;;;;;;2.25;2.00;;;;;;;;;;4404419;32;20314;-55
2021/05/21 13:09:57;;;;;;;3.10;1.85;;;;;;;;;;4417935;32;20206;-56
2021/05/21 13:12:39;;;;;;;3.50;2.17;;;;;;;;;;4418492;32;20270;-56
2021/05/21 13:15:13;;;;;;;10.52;2.67;;;;;;;;;;4418304;32;20252;-56
2021/05/21 13:17:41;;;;;;;2.30;1.80;;;;;;;;;;4418156;32;20350;-56
2021/05/21 13:20:08;;;;;;;3.70;2.78;;;;;;;;;;4417970;32;20446;-56
2021/05/21 13:22:34;;;;;;;2.87;2.37;;;;;;;;;;4418198;32;20281;-55
2021/05/21 13:25:03;;;;;;;8.30;4.55;;;;;;;;;;4417936;32;20280;-56
2021/05/21 13:27:37;;;;;;;13.15;8.10;;;;;;;;;;4418093;32;20217;-55
2021/05/21 13:30:07;;;;;;;5.82;4.50;;;;;;;;;;4417647;32;20185;-55
2021/05/21 13:32:33;;;;;;;14.73;7.22;;;;;;;;;;4403637;32;20248;-56
2021/05/21 13:34:59;;;;;;;57.92;20.52;;;;;;;;;;4402939;32;20272;-56
2021/05/21 13:37:24;;;;;;;27.00;12.37;;;;;;;;;;4403062;32;20206;-56
2021/05/21 13:39:51;;;;;;;7.37;5.03;;;;;;;;;;4402704;32;20291;-56
2021/05/21 13:42:17;;;;;;;5.93;3.97;;;;;;;;;;4388974;32;20312;-56
2021/05/21 13:44:43;;;;;;;15.23;3.15;;;;;;;;;;4402883;32;20586;-56
2021/05/21 13:47:09;;;;;;;4.07;2.97;;;;;;;;;;4402427;32;20221;-56
2021/05/21 13:49:35;;;;;;;8.75;3.30;;;;;;;;;;4402215;32;20320;-56
2021/05/21 13:52:01;;;;;;;3.92;2.10;;;;;;;;;;4388751;32;20242;-57
2021/05/21 13:54:27;;;;;;;3.35;2.33;;;;;;;;;;4415119;32;20284;-57
2021/05/21 13:56:54;;;;;;;16.17;4.90;;;;;;;;;;4403756;32;20240;-57
2021/05/21 13:59:21;;;;;;;7.10;4.03;;;;;;;;;;4403748;32;20256;-56
2021/05/21 14:01:47;;;;;;;4.10;3.33;;;;;;;;;;4417798;32;20346;-56
2021/05/21 14:04:12;;;;;;;5.10;2.83;;;;;;;;;;4416834;32;20213;-56
2021/05/21 14:06:38;;;;;;;7.45;2.97;;;;;;;;;;4417575;32;20263;-56
2021/05/21 14:09:04;;;;;;;3.03;2.42;;;;;;;;;;4417410;32;20256;-56
2021/05/21 14:11:30;;;;;;;7.47;6.15;;;;;;;;;;4417220;32;20641;-56
2021/05/21 14:13:56;;;;;;;5.97;4.28;;;;;;;;;;4417556;32;20204;-57
2021/05/21 14:16:22;;;;;;;8.27;3.83;;;;;;;;;;4417561;32;20214;-57
2021/05/21 14:18:48;;;;;;;4.20;3.42;;;;;;;;;;4417350;32;20256;-56
2021/05/21 14:21:14;;;;;;;9.15;4.85;;;;;;;;;;4417618;32;20278;-56
2021/05/21 14:23:41;;;;;;;10.48;4.25;;;;;;;;;;4417324;32;20611;-56
2021/05/21 14:26:08;;;;;;;7.40;3.45;;;;;;;;;;4417387;32;20387;-56
2021/05/21 14:28:34;;;;;;;2.78;2.45;;;;;;;;;;4417407;32;20229;-56
2021/05/21 14:31:00;;;;;;;3.75;2.53;;;;;;;;;;4412408;32;20720;-55
2021/05/21 14:33:33;;;;;;;4.70;2.72;;;;;;;;;;4402055;32;20468;-56
2021/05/21 14:35:59;;;;;;;3.78;2.83;;;;;;;;;;4402336;32;20614;-55
2021/05/21 14:38:25;;;;;;;5.10;4.12;;;;;;;;;;4402025;32;20201;-55
2021/05/21 14:40:50;;;;;;;4.12;3.05;;;;;;;;;;4401992;32;20306;-55
2021/05/21 14:43:16;;;;;;;4.78;4.28;;;;;;;;;;4401483;32;20438;-55
2021/05/21 14:45:42;;;;;;;6.15;3.17;;;;;;;;;;4399929;32;20296;-56